Terminal Aerodrome Forecast
Issued by NWS

Home | Current Version | Previous Version | Text Only | Print | Product List | Glossary Off
Versions: 1 2 3 4 5 6 7 8 9 10 11 12 13 14 15 16 17 18 19 20

000
FTUS43 KICT 201137
TAFCNU
TAF
KCNU 201137Z 2012/2112 17013KT P6SM -RA BKN090
      TEMPO 2012/2015 TS BKN050CB
     FM201500 25006KT P6SM VCSH OVC050
     FM201800 27004KT P6SM VCSH BKN040
     FM210200 VRB03KT P6SM BKN035
     FM210900 36003KT P6SM BKN020=

USA.gov is the U.S. government's official web portal to all federal, state and local government web resources and services.